Time;durP1;ratioP1;P1;durP2;ratioP2;P2;SDS_P1;SDS_P2;PMS_P1;PMS_P2;Temp;Humidity;BMP_temperature;BMP_pressure;BME280_temperature;BME280_humidity;BME280_pressure;Samples;Min_cycle;Max_cycle;Signal;HPM_P1;HPM_P2
2023/06/04 00:01:21;;;;;;;14.55;3.38;;;13.10;99.90;;;;;;5093028;28;20051;-58
2023/06/04 00:03:46;;;;;;;10.57;3.78;;;13.10;99.90;;;;;;5092523;28;20044;-58
2023/06/04 00:06:12;;;;;;;7.65;3.42;;;13.00;99.90;;;;;;5093008;28;20560;-59
2023/06/04 00:08:38;;;;;;;6.82;3.13;;;13.00;99.90;;;;;;5092653;28;20399;-60
2023/06/04 00:11:03;;;;;;;15.52;3.58;;;13.00;99.90;;;;;;5092724;28;20036;-58
2023/06/04 00:13:29;;;;;;;7.35;3.08;;;12.90;99.90;;;;;;5092438;28;20119;-58
2023/06/04 00:15:55;;;;;;;10.13;3.10;;;12.90;99.90;;;;;;5092877;28;20024;-58
2023/06/04 00:18:20;;;;;;;10.38;3.45;;;12.90;99.90;;;;;;5092468;28;20513;-58
2023/06/04 00:20:46;;;;;;;8.60;3.10;;;12.90;99.90;;;;;;5092285;28;20063;-58
2023/06/04 00:23:12;;;;;;;10.07;3.60;;;12.80;99.90;;;;;;5092694;28;20032;-60
2023/06/04 00:25:37;;;;;;;11.48;3.45;;;12.80;99.90;;;;;;5125145;28;20359;-58
2023/06/04 00:28:03;;;;;;;7.80;3.75;;;12.70;99.90;;;;;;5092683;28;20039;-58
2023/06/04 00:30:29;;;;;;;9.10;3.03;;;12.70;99.90;;;;;;5091952;28;20067;-57
2023/06/04 00:32:55;;;;;;;10.98;3.97;;;12.60;99.90;;;;;;5091957;28;20109;-58
2023/06/04 00:35:21;;;;;;;8.57;3.42;;;12.60;99.90;;;;;;5092483;28;20064;-58
2023/06/04 00:37:47;;;;;;;11.10;3.88;;;12.60;99.90;;;;;;5092396;28;20075;-58
2023/06/04 00:40:13;;;;;;;8.18;2.92;;;12.70;99.90;;;;;;5093909;28;20482;-59
2023/06/04 00:42:38;;;;;;;13.40;4.00;;;12.60;99.90;;;;;;5096048;28;20406;-58
2023/06/04 00:45:07;;;;;;;10.15;3.58;;;12.60;99.90;;;;;;5095895;28;20085;-59
2023/06/04 00:47:33;;;;;;;;;;;12.50;99.90;;;;;;5129142;27;20111;-59
2023/06/04 00:49:58;;;;;;;8.88;3.35;;;12.40;99.90;;;;;;5096212;28;20010;-58
2023/06/04 00:52:25;;;;;;;7.95;3.15;;;12.40;99.90;;;;;;5095749;28;20056;-58
2023/06/04 00:54:54;;;;;;;10.13;4.03;;;12.50;99.90;;;;;;5095611;28;20048;-57
2023/06/04 00:57:22;;;;;;;8.07;3.72;;;12.40;99.90;;;;;;5094413;28;20051;-58
2023/06/04 00:59:48;;;;;;;13.23;4.03;;;12.30;99.90;;;;;;5095592;28;20028;-58
2023/06/04 01:02:22;;;;;;;10.45;4.22;;;12.40;99.90;;;;;;5095719;28;20051;-58
2023/06/04 01:04:48;;;;;;;11.07;3.78;;;12.30;99.90;;;;;;5095599;28;20119;-59
2023/06/04 01:07:15;;;;;;;10.70;3.97;;;12.30;99.90;;;;;;5095936;28;20158;-58
2023/06/04 01:09:41;;;;;;;11.88;3.95;;;12.30;99.90;;;;;;5095310;28;20039;-59
2023/06/04 01:12:07;;;;;;;13.95;4.63;;;12.30;99.90;;;;;;5095361;28;20051;-58
2023/06/04 01:14:33;;;;;;;12.43;4.57;;;12.30;99.90;;;;;;5095038;28;20040;-57
2023/06/04 01:17:13;;;;;;;12.95;3.50;;;12.20;99.90;;;;;;5095574;28;20036;-59
2023/06/04 01:19:51;;;;;;;;;;;12.20;99.90;;;;;;5128337;27;20047;-58
2023/06/04 01:22:54;;;;;;;7.65;3.83;;;12.20;99.90;;;;;;5092265;28;19916;-57
2023/06/04 01:25:31;;;;;;;8.48;3.42;;;12.00;99.90;;;;;;5032878;28;20053;-58
2023/06/04 01:27:57;;;;;;;11.48;3.63;;;12.00;99.90;;;;;;5032779;28;20451;-59
2023/06/04 01:30:25;;;;;;;7.55;3.45;;;12.00;99.90;;;;;;5016461;28;20849;-59
2023/06/04 01:32:54;;;;;;;11.63;3.80;;;12.00;99.90;;;;;;5015568;28;20055;-57
2023/06/04 01:35:21;;;;;;;11.20;4.30;;;12.00;99.90;;;;;;5032652;28;20697;-57
2023/06/04 01:37:47;;;;;;;11.32;3.35;;;11.90;99.90;;;;;;5032438;28;20041;-58
2023/06/04 01:40:14;;;;;;;8.82;3.30;;;12.00;99.90;;;;;;5032312;28;20046;-57
2023/06/04 01:42:40;;;;;;;7.75;3.33;;;11.80;99.90;;;;;;5032547;28;20128;-57
2023/06/04 01:45:06;;;;;;;10.32;3.95;;;12.00;99.90;;;;;;5032467;28;20049;-58
2023/06/04 01:47:32;;;;;;;10.18;4.28;;;11.90;99.90;;;;;;5032510;28;20045;-58
2023/06/04 01:49:58;;;;;;;12.70;3.80;;;11.90;99.90;;;;;;5032297;28;20538;-57
2023/06/04 01:52:23;;;;;;;14.20;4.22;;;11.90;99.90;;;;;;5017300;28;20058;-57
2023/06/04 01:54:52;;;;;;;6.97;3.78;;;11.80;99.90;;;;;;5032257;28;20057;-58
2023/06/04 01:57:19;;;;;;;11.60;4.43;;;11.80;99.90;;;;;;5020075;28;20041;-58
2023/06/04 01:59:48;;;;;;;7.65;3.75;;;11.80;99.90;;;;;;5005049;28;20052;-57
2023/06/04 02:02:15;;;;;;;13.07;4.95;;;11.70;99.90;;;;;;5066523;28;20508;-57
2023/06/04 02:04:41;;;;;;;9.18;4.20;;;11.70;99.90;;;;;;5094138;28;20545;-58
2023/06/04 02:07:11;;;;;;;8.27;3.78;;;11.80;99.90;;;;;;5093500;28;20047;-59
2023/06/04 02:09:37;;;;;;;12.15;4.20;;;11.80;99.90;;;;;;5094296;28;20048;-57
2023/06/04 02:12:03;;;;;;;13.05;4.68;;;11.80;99.90;;;;;;5094453;28;20078;-57
2023/06/04 02:14:29;;;;;;;9.90;4.68;;;11.70;99.90;;;;;;5094064;28;20131;-58
2023/06/04 02:16:57;;;;;;;14.27;5.60;;;11.70;99.90;;;;;;5094389;28;20489;-58
2023/06/04 02:19:25;;;;;;;5.50;3.97;;;11.70;99.90;;;;;;5094459;28;20119;-58
2023/06/04 02:21:52;;;;;;;9.68;5.03;;;11.70;99.90;;;;;;5089598;28;20501;-58
2023/06/04 02:24:17;;;;;;;13.70;4.88;;;11.70;99.90;;;;;;5127049;27;20784;-58
2023/06/04 02:26:43;;;;;;;13.63;4.50;;;11.70;99.90;;;;;;5094158;28;20051;-58
2023/06/04 02:29:08;;;;;;;11.48;5.22;;;11.70;99.90;;;;;;5094438;28;20079;-58
2023/06/04 02:31:34;;;;;;;10.32;4.57;;;11.70;99.90;;;;;;5093974;28;20036;-58
2023/06/04 02:34:00;;;;;;;15.05;4.95;;;11.60;99.90;;;;;;5093874;28;20123;-61
2023/06/04 02:36:26;;;;;;;13.15;4.55;;;11.60;99.90;;;;;;5084836;28;20044;-58
2023/06/04 02:38:52;;;;;;;11.30;4.95;;;11.70;99.90;;;;;;5093847;28;20081;-57
2023/06/04 02:41:17;;;;;;;9.50;4.40;;;11.60;99.90;;;;;;5093580;28;20471;-57
2023/06/04 02:43:44;;;;;;;9.98;4.47;;;11.60;99.90;;;;;;5093973;28;20043;-59
2023/06/04 02:46:10;;;;;;;8.60;4.35;;;11.50;99.90;;;;;;5094148;28;20040;-58
2023/06/04 02:48:35;;;;;;;10.10;4.80;;;11.60;99.90;;;;;;5093658;28;20394;-57
2023/06/04 02:51:01;;;;;;;8.95;5.40;;;11.60;99.90;;;;;;5090876;28;20040;-57
2023/06/04 02:53:27;;;;;;;12.25;4.97;;;11.50;99.90;;;;;;5081472;28;20048;-58
2023/06/04 02:55:52;;;;;;;11.93;5.75;;;11.50;99.90;;;;;;5092363;28;20048;-58
2023/06/04 02:58:19;;;;;;;10.00;5.13;;;11.50;99.90;;;;;;5089206;28;20036;-58
2023/06/04 03:00:45;;;;;;;12.95;5.55;;;11.50;99.90;;;;;;5093074;28;20047;-58
2023/06/04 03:03:10;;;;;;;12.73;5.25;;;11.50;99.90;;;;;;5092449;28;20467;-58
2023/06/04 03:05:39;;;;;;;16.75;5.25;;;11.50;99.90;;;;;;5092984;28;20056;-59
2023/06/04 03:08:06;;;;;;;9.25;4.60;;;11.40;99.90;;;;;;5093332;28;20046;-59
2023/06/04 03:10:31;;;;;;;15.63;6.40;;;11.50;99.90;;;;;;5092818;28;20044;-58
2023/06/04 03:12:57;;;;;;;9.55;4.82;;;11.50;99.90;;;;;;5126259;27;20114;-58
2023/06/04 03:15:23;;;;;;;8.75;4.28;;;11.40;99.90;;;;;;5093558;28;20040;-59
2023/06/04 03:17:48;;;;;;;10.20;5.30;;;11.40;99.90;;;;;;5093172;28;20043;-57
2023/06/04 03:20:14;;;;;;;9.52;5.13;;;11.40;99.90;;;;;;5093191;28;20043;-58
2023/06/04 03:22:40;;;;;;;8.45;4.80;;;11.30;99.90;;;;;;5080860;28;20047;-58
2023/06/04 03:25:06;;;;;;;11.85;4.72;;;11.30;99.90;;;;;;5091866;28;20127;-58
2023/06/04 03:27:32;;;;;;;13.20;5.60;;;11.30;99.90;;;;;;5092921;28;20032;-58
2023/06/04 03:29:58;;;;;;;11.80;5.07;;;11.10;99.90;;;;;;5092783;28;20036;-57
2023/06/04 03:32:24;;;;;;;13.07;5.65;;;11.20;99.90;;;;;;5093235;28;20408;-58
2023/06/04 03:34:50;;;;;;;10.65;4.90;;;11.30;99.90;;;;;;5091134;28;20542;-58
2023/06/04 03:37:17;;;;;;;8.63;4.80;;;11.30;99.90;;;;;;5092927;28;20085;-58
2023/06/04 03:39:43;;;;;;;12.25;4.85;;;11.40;99.90;;;;;;5092612;28;20036;-59
2023/06/04 03:42:08;;;;;;;11.07;4.65;;;11.30;99.90;;;;;;5092894;28;20119;-57
2023/06/04 03:44:34;;;;;;;9.85;4.95;;;11.30;99.90;;;;;;5092423;28;20043;-59
2023/06/04 03:46:59;;;;;;;10.77;4.80;;;11.30;99.90;;;;;;5092647;28;20389;-60
2023/06/04 03:49:25;;;;;;;13.05;4.90;;;11.40;99.90;;;;;;5092635;28;20077;-58
2023/06/04 03:51:51;;;;;;;9.85;4.72;;;11.40;99.90;;;;;;5092529;28;20085;-58
2023/06/04 03:54:17;;;;;;;9.50;4.25;;;11.30;99.90;;;;;;5092483;28;20048;-57
2023/06/04 03:56:46;;;;;;;10.82;4.90;;;11.30;99.90;;;;;;5092596;28;20050;-57
2023/06/04 03:59:12;;;;;;;9.38;4.20;;;11.30;99.90;;;;;;5125515;28;20044;-57
2023/06/04 04:01:38;;;;;;;9.00;4.47;;;11.30;99.90;;;;;;5092816;28;20028;-58
2023/06/04 04:04:04;;;;;;;8.02;4.55;;;11.30;99.90;;;;;;5092366;28;20036;-57
2023/06/04 04:06:30;;;;;;;10.40;5.03;;;11.30;99.90;;;;;;5091751;28;20059;-57
2023/06/04 04:08:56;;;;;;;12.40;5.22;;;11.40;99.90;;;;;;5091485;28;20044;-57
2023/06/04 04:11:22;;;;;;;11.48;4.45;;;11.50;99.90;;;;;;5092262;28;20111;-58
2023/06/04 04:13:48;;;;;;;9.35;4.97;;;11.60;99.90;;;;;;5090809;28;20077;-58
2023/06/04 04:16:13;;;;;;;12.20;4.88;;;11.60;99.90;;;;;;5095582;28;20063;-59
2023/06/04 04:18:43;;;;;;;10.43;4.75;;;11.60;99.90;;;;;;5096497;28;20083;-58
2023/06/04 04:21:10;;;;;;;11.70;5.15;;;11.60;99.90;;;;;;5096559;28;20085;-58
2023/06/04 04:23:39;;;;;;;6.63;4.25;;;11.60;99.90;;;;;;5096435;28;20044;-59
2023/06/04 04:26:06;;;;;;;12.30;4.65;;;11.80;99.90;;;;;;5096328;28;20044;-57
2023/06/04 04:28:32;;;;;;;9.55;4.97;;;11.90;99.90;;;;;;5096069;28;20368;-58
2023/06/04 04:31:02;;;;;;;8.70;4.97;;;11.90;99.90;;;;;;5096451;28;20032;-57
2023/06/04 04:33:32;;;;;;;10.52;4.68;;;12.00;99.90;;;;;;5096155;28;20108;-57
2023/06/04 04:36:01;;;;;;;14.52;5.53;;;12.10;99.90;;;;;;5096182;28;20040;-58
2023/06/04 04:38:28;;;;;;;12.40;5.63;;;12.10;99.90;;;;;;5096071;28;20414;-58
2023/06/04 04:40:55;;;;;;;10.60;4.85;;;12.10;99.90;;;;;;5094994;28;20058;-58
2023/06/04 04:43:32;;;;;;;10.82;5.05;;;12.20;99.90;;;;;;5096177;28;20047;-58
2023/06/04 04:45:57;;;;;;;7.80;5.00;;;12.30;99.90;;;;;;5096005;28;20123;-58
2023/06/04 04:48:24;;;;;;;11.25;5.03;;;12.30;99.90;;;;;;5096067;28;20055;-58
2023/06/04 04:50:50;;;;;;;11.00;5.53;;;12.40;99.90;;;;;;5095686;28;20509;-58
2023/06/04 04:53:15;;;;;;;13.45;5.05;;;12.50;99.90;;;;;;5095527;28;20044;-58
2023/06/04 04:55:41;;;;;;;11.18;5.28;;;12.50;99.90;;;;;;5128692;27;20040;-58
2023/06/04 04:58:07;;;;;;;10.15;5.03;;;12.60;99.90;;;;;;5095819;28;20032;-60
2023/06/04 05:00:32;;;;;;;13.55;5.05;;;12.70;99.90;;;;;;5095629;28;20058;-58
2023/06/04 05:02:58;;;;;;;8.60;5.00;;;12.70;99.90;;;;;;5095668;28;20036;-57
2023/06/04 05:05:24;;;;;;;9.63;6.28;;;12.90;99.90;;;;;;5095342;28;20091;-58
2023/06/04 05:07:49;;;;;;;11.10;6.40;;;12.90;99.90;;;;;;5095762;28;20455;-58
2023/06/04 05:10:15;;;;;;;14.13;5.85;;;13.00;99.90;;;;;;5095121;28;20483;-58
2023/06/04 05:12:51;;;;;;;8.60;5.30;;;13.10;99.90;;;;;;5095758;28;20047;-58
2023/06/04 05:15:18;;;;;;;12.60;6.75;;;13.30;99.90;;;;;;5095279;28;20091;-58
2023/06/04 05:17:43;;;;;;;16.17;6.75;;;13.30;99.90;;;;;;5095398;28;20036;-57
2023/06/04 05:20:11;;;;;;;15.70;7.25;;;13.50;99.90;;;;;;5095064;28;20115;-57
2023/06/04 05:22:37;;;;;;;11.10;6.35;;;13.60;99.90;;;;;;5095274;28;20107;-58
2023/06/04 05:25:04;;;;;;;8.93;6.65;;;13.60;99.90;;;;;;5095222;28;20086;-58
2023/06/04 05:27:31;;;;;;;9.00;5.88;;;13.70;99.90;;;;;;5094213;28;20047;-58
2023/06/04 05:29:57;;;;;;;10.40;6.63;;;13.90;99.90;;;;;;5095025;28;20043;-58
2023/06/04 05:32:23;;;;;;;14.55;6.90;;;13.90;99.90;;;;;;5095356;28;20043;-58
2023/06/04 05:34:49;;;;;;;16.45;7.60;;;14.00;99.90;;;;;;5095024;28;20047;-57
2023/06/04 05:37:16;;;;;;;13.27;6.05;;;14.00;99.90;;;;;;5095110;28;20043;-58
2023/06/04 05:39:42;;;;;;;13.48;5.32;;;14.10;99.90;;;;;;5095115;28;20111;-58
2023/06/04 05:42:09;;;;;;;10.30;5.45;;;14.20;99.90;;;;;;5094787;28;20107;-58
2023/06/04 05:44:35;;;;;;;11.05;4.97;;;14.20;99.90;;;;;;5094730;28;20375;-58
2023/06/04 05:47:01;;;;;;;13.55;5.05;;;14.30;99.90;;;;;;5127727;27;20043;-58
2023/06/04 05:49:26;;;;;;;15.80;5.63;;;14.30;99.90;;;;;;5094600;28;20115;-57
2023/06/04 05:51:53;;;;;;;12.07;4.55;;;14.50;99.90;;;;;;5094995;28;20051;-58
2023/06/04 05:54:19;;;;;;;12.35;4.47;;;14.60;99.90;;;;;;5094417;28;20125;-58
2023/06/04 05:56:44;;;;;;;14.07;4.00;;;14.60;99.90;;;;;;5094681;28;20395;-57
2023/06/04 05:59:10;;;;;;;8.77;4.55;;;14.70;99.90;;;;;;5094697;28;20040;-57
2023/06/04 06:01:36;;;;;;;9.88;4.15;;;14.70;99.90;;;;;;5094341;28;20115;-57
2023/06/04 06:04:02;;;;;;;9.88;4.45;;;14.70;99.90;;;;;;5094365;28;20036;-57
2023/06/04 06:06:28;;;;;;;9.82;4.20;;;14.80;99.90;;;;;;5094300;28;20173;-57
2023/06/04 06:08:54;;;;;;;10.98;3.85;;;15.00;99.90;;;;;;5094189;28;20051;-58
2023/06/04 06:11:21;;;;;;;10.50;3.58;;;15.00;99.90;;;;;;5094106;28;20044;-58
2023/06/04 06:13:47;;;;;;;9.23;2.88;;;14.90;99.90;;;;;;5093813;28;20402;-57
2023/06/04 06:16:12;;;;;;;9.20;3.55;;;15.10;99.90;;;;;;5094210;28;20040;-57
2023/06/04 06:18:38;;;;;;;12.27;3.45;;;15.20;99.90;;;;;;5093953;28;20076;-58
2023/06/04 06:21:04;;;;;;;10.32;3.97;;;15.30;99.90;;;;;;5094057;28;20058;-57
2023/06/04 06:23:30;;;;;;;11.35;3.55;;;15.40;99.90;;;;;;5093693;28;20043;-57
2023/06/04 06:25:55;;;;;;;9.85;3.15;;;15.60;99.90;;;;;;5094140;28;20036;-57
2023/06/04 06:28:21;;;;;;;8.77;2.92;;;15.70;99.90;;;;;;5094035;28;20124;-57
2023/06/04 06:30:47;;;;;;;9.05;2.97;;;15.90;99.90;;;;;;5093457;28;20036;-58
2023/06/04 06:33:13;;;;;;;8.32;2.65;;;16.00;99.90;;;;;;5092099;28;20044;-58
2023/06/04 06:35:39;;;;;;;5.13;2.25;;;15.90;99.90;;;;;;5093479;28;20040;-58
2023/06/04 06:38:05;;;;;;;10.30;3.08;;;16.00;99.90;;;;;;5092225;28;20040;-57
2023/06/04 06:40:30;;;;;;;8.50;3.13;;;16.10;99.90;;;;;;5093415;28;20044;-57
2023/06/04 06:42:56;;;;;;;11.23;3.30;;;16.30;99.90;;;;;;5094018;28;20054;-57
2023/06/04 06:45:22;;;;;;;9.02;2.38;;;16.40;99.90;;;;;;5094188;28;20051;-57
2023/06/04 06:47:48;;;;;;;5.97;2.45;;;16.50;99.90;;;;;;5093586;28;20390;-58
2023/06/04 06:50:14;;;;;;;9.02;2.63;;;16.80;99.90;;;;;;5093998;28;20050;-57
2023/06/04 06:52:39;;;;;;;9.85;3.25;;;16.80;99.90;;;;;;5092926;28;20054;-58
2023/06/04 06:55:05;;;;;;;10.23;3.00;;;16.70;99.90;;;;;;5093259;28;20040;-58
2023/06/04 06:57:31;;;;;;;10.45;2.80;;;16.70;99.90;;;;;;5093517;28;20433;-58
2023/06/04 06:59:57;;;;;;;9.73;3.22;;;16.70;99.90;;;;;;5093625;28;20035;-58
2023/06/04 07:02:23;;;;;;;11.85;2.67;;;16.90;99.90;;;;;;5093192;28;20513;-58
2023/06/04 07:04:49;;;;;;;9.65;3.10;;;17.10;99.90;;;;;;5092137;28;20394;-58
2023/06/04 07:07:14;;;;;;;6.53;2.05;;;17.40;99.90;;;;;;5093117;28;20490;-58
2023/06/04 07:09:40;;;;;;;9.20;3.20;;;17.30;99.90;;;;;;5093263;28;20039;-58
2023/06/04 07:12:06;;;;;;;7.65;2.20;;;17.40;99.90;;;;;;5093012;28;20043;-58
2023/06/04 07:14:32;;;;;;;7.47;2.17;;;17.80;99.90;;;;;;5091955;28;20040;-58
2023/06/04 07:16:57;;;;;;;5.90;2.70;;;18.00;99.90;;;;;;5092954;28;20368;-58
2023/06/04 07:19:23;;;;;;;6.10;2.40;;;18.10;99.90;;;;;;5091947;28;20040;-57
2023/06/04 07:21:50;;;;;;;5.20;1.80;;;18.20;99.90;;;;;;5091768;28;20061;-57
2023/06/04 07:24:15;;;;;;;6.18;2.17;;;18.20;99.90;;;;;;5091824;28;20032;-58
2023/06/04 07:26:41;;;;;;;5.50;2.08;;;18.60;99.90;;;;;;5093268;28;20039;-57
2023/06/04 07:29:07;;;;;;;8.50;1.90;;;18.40;99.90;;;;;;5092906;28;20093;-58
2023/06/04 07:31:32;;;;;;;7.75;1.80;;;18.70;99.90;;;;;;5093311;28;20105;-58
2023/06/04 07:33:58;;;;;;;4.63;1.80;;;18.90;99.90;;;;;;5093095;28;20040;-58
2023/06/04 07:36:23;;;;;;;5.00;1.83;;;19.10;99.90;;;;;;5077485;28;20058;-58
2023/06/04 07:38:49;;;;;;;7.53;2.10;;;19.30;99.90;;;;;;5092872;28;20496;-57
2023/06/04 07:41:15;;;;;;;6.38;1.52;;;19.40;99.90;;;;;;5092654;28;20032;-58
2023/06/04 07:43:43;;;;;;;6.70;1.80;;;19.50;99.90;;;;;;5125663;27;20095;-58
2023/06/04 07:46:09;;;;;;;6.28;1.70;;;19.50;99.90;;;;;;5091809;28;20122;-59
2023/06/04 07:48:35;;;;;;;4.30;1.70;;;19.90;99.90;;;;;;5093258;28;20032;-58
2023/06/04 07:51:03;;;;;;;5.38;1.90;;;19.90;99.90;;;;;;5077668;28;20376;-59
2023/06/04 07:53:28;;;;;;;4.07;1.90;;;19.80;99.90;;;;;;5072413;28;20123;-57
2023/06/04 07:55:55;;;;;;;5.10;2.30;;;19.90;99.90;;;;;;5104274;28;20178;-58
2023/06/04 07:58:20;;;;;;;6.05;2.45;;;20.00;99.90;;;;;;5072430;28;20119;-58
2023/06/04 08:00:46;;;;;;;5.13;2.10;;;20.30;99.90;;;;;;5072685;28;20040;-58
2023/06/04 08:03:11;;;;;;;5.38;2.05;;;20.20;99.90;;;;;;5072472;28;20032;-57
2023/06/04 08:05:37;;;;;;;6.40;1.98;;;20.50;99.90;;;;;;5072521;28;20037;-58
2023/06/04 08:08:03;;;;;;;5.32;1.80;;;20.50;99.90;;;;;;5072239;28;20037;-58
2023/06/04 08:10:29;;;;;;;9.73;1.90;;;20.60;99.90;;;;;;5072326;28;20032;-58
2023/06/04 08:12:56;;;;;;;3.63;1.73;;;20.40;99.90;;;;;;5072275;28;20127;-57
2023/06/04 08:15:21;;;;;;;4.40;1.60;;;20.40;99.90;;;;;;5072166;28;20029;-59
2023/06/04 08:17:47;;;;;;;4.32;2.10;;;20.60;99.90;;;;;;5070828;28;20608;-58
2023/06/04 08:20:13;;;;;;;5.18;1.67;;;20.90;99.90;;;;;;5072498;28;20506;-59
2023/06/04 08:22:38;;;;;;;5.45;1.58;;;20.80;99.90;;;;;;5072501;28;20542;-58
2023/06/04 08:25:05;;;;;;;4.10;1.98;;;20.90;99.90;;;;;;5072559;28;20041;-58
2023/06/04 08:27:31;;;;;;;7.28;1.80;;;21.40;99.90;;;;;;5072113;28;20037;-59
2023/06/04 08:29:57;;;;;;;4.53;1.83;;;21.50;99.90;;;;;;5072209;28;20044;-58
2023/06/04 08:32:24;;;;;;;5.65;2.05;;;21.70;99.90;;;;;;5072466;28;20025;-57
2023/06/04 08:34:50;;;;;;;4.50;1.83;;;22.00;99.90;;;;;;5072335;28;20048;-59
2023/06/04 08:37:17;;;;;;;3.55;1.80;;;21.80;99.90;;;;;;5072627;28;20121;-58
2023/06/04 08:39:43;;;;;;;6.15;1.75;;;22.00;99.90;;;;;;5072693;28;20171;-57
2023/06/04 08:42:19;;;;;;;6.28;1.55;;;22.30;99.90;;;;;;5072135;28;20519;-58
2023/06/04 08:44:50;;;;;;;5.38;1.95;;;22.10;99.90;;;;;;5077057;28;20036;-58
2023/06/04 08:47:18;;;;;;;6.35;2.33;;;22.40;99.90;;;;;;5092559;28;20127;-56
2023/06/04 08:49:49;;;;;;;5.07;2.08;;;22.20;99.90;;;;;;5092464;28;20037;-57
2023/06/04 08:52:15;;;;;;;5.10;1.83;;;22.30;99.90;;;;;;5092618;28;20043;-57
2023/06/04 08:54:41;;;;;;;7.28;2.33;;;22.40;99.90;;;;;;5091591;28;20052;-58
2023/06/04 08:57:08;;;;;;;6.90;2.15;;;22.40;99.90;;;;;;5092272;28;20048;-58
2023/06/04 08:59:33;;;;;;;5.68;2.20;;;22.60;99.90;;;;;;5091835;28;20111;-57
2023/06/04 09:02:00;;;;;;;6.38;1.83;;;22.70;99.90;;;;;;5093454;28;20150;-58
2023/06/04 09:04:26;;;;;;;6.43;1.83;;;23.00;99.90;;;;;;5095961;28;20501;-58
2023/06/04 09:06:53;;;;;;;5.32;1.60;;;23.00;99.80;;;;;;5095664;28;20036;-58
2023/06/04 09:09:21;;;;;;;6.10;1.85;;;22.80;99.90;;;;;;5095795;28;20162;-58
2023/06/04 09:11:52;;;;;;;7.55;1.85;;;22.90;99.90;;;;;;5095919;28;20519;-58
2023/06/04 09:14:18;;;;;;;3.88;1.52;;;22.90;98.60;;;;;;5095459;28;20500;-57
2023/06/04 09:16:46;;;;;;;5.88;1.67;;;23.20;99.90;;;;;;5095614;28;20111;-58
2023/06/04 09:19:11;;;;;;;7.15;1.65;;;23.30;99.70;;;;;;5128603;27;20044;-58
2023/06/04 09:21:51;;;;;;;4.00;1.83;;;23.60;99.80;;;;;;5095179;28;20039;-58
2023/06/04 09:24:18;;;;;;;4.40;1.65;;;23.50;99.50;;;;;;5095622;28;20461;-58
2023/06/04 09:26:44;;;;;;;5.15;1.67;;;23.40;98.70;;;;;;5093976;28;20048;-58
2023/06/04 09:29:10;;;;;;;4.70;1.67;;;23.30;99.50;;;;;;5095657;28;20036;-58
2023/06/04 09:31:39;;;;;;;4.47;1.73;;;23.20;98.30;;;;;;5095544;28;20050;-59
2023/06/04 09:34:06;;;;;;;3.30;1.27;;;22.80;98.70;;;;;;5095203;28;20047;-59
2023/06/04 09:36:37;;;;;;;2.95;1.33;;;23.10;99.90;;;;;;5095343;28;20383;-59
2023/06/04 09:39:04;;;;;;;3.20;1.27;;;23.20;99.50;;;;;;5095385;28;20060;-59
2023/06/04 09:41:30;;;;;;;3.65;1.42;;;23.50;99.10;;;;;;5128285;27;20036;-58
2023/06/04 09:44:02;;;;;;;3.53;1.50;;;23.50;99.50;;;;;;5094858;28;20478;-58
2023/06/04 09:46:28;;;;;;;5.35;1.60;;;23.40;99.80;;;;;;5095033;28;20386;-58
2023/06/04 09:49:03;;;;;;;4.25;1.58;;;23.20;98.90;;;;;;5095039;28;20032;-59
2023/06/04 09:51:30;;;;;;;5.32;1.88;;;23.40;99.60;;;;;;5094621;28;20089;-59
2023/06/04 09:54:01;;;;;;;3.47;1.67;;;23.60;99.50;;;;;;5127546;27;20087;-58
2023/06/04 09:56:27;;;;;;;5.68;1.50;;;23.50;98.90;;;;;;5127758;27;20386;-58
2023/06/04 09:58:56;;;;;;;3.28;1.45;;;23.60;99.30;;;;;;5094799;28;20040;-59
2023/06/04 10:01:26;;;;;;;5.47;1.58;;;23.60;99.20;;;;;;5094326;28;20032;-59
2023/06/04 10:03:52;;;;;;;5.82;1.67;;;23.70;99.30;;;;;;5094288;28;20109;-58
2023/06/04 10:06:22;;;;;;;5.15;1.50;;;23.90;99.00;;;;;;5094423;28;20069;-59
2023/06/04 10:08:50;;;;;;;2.92;1.40;;;23.80;99.00;;;;;;5094702;28;20044;-59
2023/06/04 10:11:30;;;;;;;3.15;1.52;;;23.70;99.00;;;;;;5094518;28;20040;-58
2023/06/04 10:14:04;;;;;;;5.50;1.73;;;23.40;97.60;;;;;;5093875;28;20044;-59
2023/06/04 10:16:31;;;;;;;5.05;1.63;;;23.50;98.90;;;;;;5094471;28;20047;-58
2023/06/04 10:18:59;;;;;;;3.50;1.40;;;23.60;99.50;;;;;;5093924;28;20032;-59
2023/06/04 10:21:26;;;;;;;3.00;1.38;;;23.70;99.60;;;;;;5094236;28;20120;-58
2023/06/04 10:23:52;;;;;;;2.70;1.50;;;23.90;99.40;;;;;;5094412;28;20036;-58
2023/06/04 10:26:18;;;;;;;3.90;1.45;;;24.10;98.50;;;;;;5094128;28;20375;-59
2023/06/04 10:28:44;;;;;;;4.47;1.33;;;24.20;98.60;;;;;;5093808;28;20042;-59
2023/06/04 10:31:10;;;;;;;3.28;1.27;;;24.10;98.80;;;;;;5094154;28;20042;-59
2023/06/04 10:33:37;;;;;;;4.38;1.85;;;24.10;99.00;;;;;;5093628;28;20058;-60
2023/06/04 10:36:23;;;;;;;3.50;1.73;;;24.00;98.50;;;;;;5093869;28;20479;-58
2023/06/04 10:38:53;;;;;;;2.08;1.50;;;24.10;98.50;;;;;;5093548;28;20047;-59
2023/06/04 10:41:21;;;;;;;3.42;1.70;;;23.80;98.30;;;;;;5093638;28;20044;-59
2023/06/04 10:43:50;;;;;;;47.58;13.38;;;24.10;98.70;;;;;;5093732;28;20040;-58
2023/06/04 10:46:20;;;;;;;3.45;1.42;;;24.00;99.20;;;;;;5093514;28;20050;-59
2023/06/04 10:48:50;;;;;;;3.13;1.33;;;23.90;98.80;;;;;;5094049;28;20445;-58
2023/06/04 10:51:32;;;;;;;5.05;1.73;;;24.00;99.20;;;;;;5093453;28;20042;-58
2023/06/04 10:53:58;;;;;;;5.57;1.60;;;24.20;98.90;;;;;;5093249;28;20517;-59
2023/06/04 10:56:35;;;;;;;3.28;1.83;;;24.30;99.10;;;;;;5093578;28;20032;-59
2023/06/04 10:59:12;;;;;;;4.70;1.77;;;24.20;98.50;;;;;;5093280;28;20040;-58
2023/06/04 11:01:38;;;;;;;3.22;1.50;;;24.40;98.90;;;;;;5093228;28;20032;-59
2023/06/04 11:04:03;;;;;;;4.18;1.40;;;24.20;97.90;;;;;;5093580;28;20044;-59
2023/06/04 11:06:30;;;;;;;4.20;1.58;;;24.10;98.80;;;;;;5093686;28;20044;-58
2023/06/04 11:09:05;;;;;;;3.53;1.50;;;24.20;98.40;;;;;;5093608;28;20405;-59
2023/06/04 11:11:32;;;;;;;4.25;1.70;;;24.00;97.60;;;;;;5093435;28;20036;-58
2023/06/04 11:14:12;;;;;;;4.03;1.08;;;24.10;98.10;;;;;;5093176;28;20126;-59
2023/06/04 11:16:39;;;;;;;2.10;1.10;;;24.20;97.90;;;;;;5092883;28;20435;-59
2023/06/04 11:19:04;;;;;;;2.50;1.27;;;24.10;98.30;;;;;;5093288;28;20036;-59
2023/06/04 11:21:30;;;;;;;4.05;1.40;;;24.20;98.30;;;;;;5093373;28;20036;-59
2023/06/04 11:24:01;;;;;;;3.50;1.63;;;24.30;98.60;;;;;;5091327;28;20553;-58
2023/06/04 11:26:34;;;;;;;3.10;1.38;;;24.50;98.30;;;;;;5092926;28;20131;-59
2023/06/04 11:29:01;;;;;;;3.13;1.30;;;24.60;97.80;;;;;;5092545;28;20035;-59
2023/06/04 11:31:27;;;;;;;3.22;1.30;;;24.80;98.10;;;;;;5093031;28;20044;-58
2023/06/04 11:33:53;;;;;;;4.20;1.48;;;24.50;96.90;;;;;;5092783;28;20040;-59
2023/06/04 11:36:29;;;;;;;3.22;1.58;;;24.30;97.60;;;;;;5093017;28;20040;-59
2023/06/04 11:38:59;;;;;;;3.22;1.80;;;24.50;98.40;;;;;;5125100;27;20089;-59
2023/06/04 11:41:28;;;;;;;4.80;1.73;;;24.50;98.60;;;;;;5092533;28;20028;-59
2023/06/04 11:43:55;;;;;;;4.30;1.67;;;24.60;98.10;;;;;;5092285;28;20115;-59
2023/06/04 11:46:20;;;;;;;3.45;1.15;;;24.70;98.60;;;;;;5092341;28;20039;-58
2023/06/04 11:48:46;;;;;;;5.03;1.20;;;24.70;98.20;;;;;;5125433;28;20032;-59
2023/06/04 11:51:12;;;;;;;2.47;1.52;;;24.80;98.20;;;;;;5092585;28;20043;-59
2023/06/04 11:53:39;;;;;;;4.47;1.58;;;24.60;97.80;;;;;;5092493;28;20540;-59
2023/06/04 11:56:05;;;;;;;4.55;1.25;;;24.80;97.40;;;;;;5091511;28;20048;-60
2023/06/04 11:58:32;;;;;;;2.70;1.40;;;24.80;98.00;;;;;;5108233;28;20032;-59
2023/06/04 12:00:59;;;;;;;2.33;1.30;;;24.50;96.90;;;;;;5091256;28;20047;-59
2023/06/04 12:03:39;;;;;;;4.20;1.88;;;24.50;97.90;;;;;;5091494;28;20032;-59
2023/06/04 12:06:18;;;;;;;2.47;1.80;;;24.40;98.00;;;;;;5092162;28;20036;-59
2023/06/04 12:08:51;;;;;;;5.78;2.00;;;24.70;97.90;;;;;;5092064;28;20070;-58
2023/06/04 12:11:34;;;;;;;4.78;1.88;;;24.80;97.70;;;;;;5092484;28;20085;-59
2023/06/04 12:14:03;;;;;;;3.97;1.60;;;24.90;96.80;;;;;;5066595;28;20051;-59
2023/06/04 12:16:28;;;;;;;4.55;1.63;;;24.80;98.10;;;;;;5092395;28;20146;-60
2023/06/04 12:19:12;;;;;;;4.50;1.60;;;24.80;97.80;;;;;;5091985;28;20455;-59
2023/06/04 12:21:39;;;;;;;3.58;1.63;;;24.60;96.30;;;;;;5092338;28;20058;-59
2023/06/04 12:24:10;;;;;;;6.07;1.65;;;24.40;97.30;;;;;;5124816;28;20072;-59
2023/06/04 12:26:43;;;;;;;3.08;2.08;;;24.50;97.80;;;;;;5092050;28;20047;-58
2023/06/04 12:29:11;;;;;;;3.13;1.40;;;24.70;97.70;;;;;;5091954;28;20040;-58
2023/06/04 12:31:42;;;;;;;3.25;1.50;;;24.70;97.70;;;;;;5091884;28;20036;-58
2023/06/04 12:34:07;;;;;;;3.47;1.50;;;24.70;98.20;;;;;;5092046;28;20032;-58
2023/06/04 12:36:36;;;;;;;2.50;1.20;;;24.60;98.80;;;;;;5126906;27;20387;-58
2023/06/04 12:39:04;;;;;;;2.97;1.35;;;24.40;98.60;;;;;;5095652;28;20032;-58
2023/06/04 12:41:31;;;;;;;4.00;1.70;;;24.50;98.40;;;;;;5095523;28;20046;-59
2023/06/04 12:43:57;;;;;;;3.92;1.38;;;24.60;98.10;;;;;;5095423;28;20107;-59